JST702 YMHB-YMML
Flight info
| Callsign | JST702 |
|---|---|
| Flight time | 1h 2m |
| Altitude | 38000 |
| Route | TASUM H111 LT H215 RAZZI W687 ML |
| Aircraft | A320/M-SDE3FGHIRWY/LB1 |
Departure
| Time | 2026-04-21 09:36 |
|---|---|
| Airport | Hobart International Airport (YMHB) |
Arrival
| Time | 2026-04-21 10:38 |
|---|---|
| Airport | Melbourne Airport (YMML) |
| Time | Latitude | Longitude | Altitude | Speed | Heading |
|---|---|---|---|---|---|
| 2026-04-21 09:03 | -42.83745 | 147.50698 | 22 ft | 0 kts | 234° |
| 2026-04-21 09:26 | -42.83738 | 147.50711 | 23 ft | 3 kts | 241° |
| 2026-04-21 09:26 | -42.83730 | 147.50738 | 25 ft | 3 kts | 267° |
| 2026-04-21 09:26 | -42.83733 | 147.50766 | 24 ft | 3 kts | 301° |
| 2026-04-21 09:26 | -42.83747 | 147.50790 | 22 ft | 3 kts | 303° |
| 2026-04-21 09:27 | -42.83753 | 147.50808 | 25 ft | 2 kts | 237° |
| 2026-04-21 09:27 | -42.83756 | 147.50807 | 24 ft | 3 kts | 208° |
| 2026-04-21 09:27 | -42.83771 | 147.50816 | 22 ft | 3 kts | 150° |
| 2026-04-21 09:27 | -42.83800 | 147.50838 | 23 ft | 0 kts | 335° |
| 2026-04-21 09:29 | -42.83796 | 147.50835 | 23 ft | 2 kts | 333° |
| 2026-04-21 09:30 | -42.83775 | 147.50821 | 22 ft | 5 kts | 333° |
| 2026-04-21 09:30 | -42.83738 | 147.50794 | 27 ft | 7 kts | 331° |
| 2026-04-21 09:30 | -42.83691 | 147.50742 | 23 ft | 10 kts | 314° |
| 2026-04-21 09:30 | -42.83638 | 147.50669 | 23 ft | 10 kts | 317° |
| 2026-04-21 09:31 | -42.83574 | 147.50687 | 24 ft | 12 kts | 38° |
| 2026-04-21 09:31 | -42.83500 | 147.50658 | 22 ft | 14 kts | 310° |
| 2026-04-21 09:31 | -42.83424 | 147.50560 | 22 ft | 16 kts | 334° |
| 2026-04-21 09:31 | -42.83346 | 147.50605 | 22 ft | 0 kts | 46° |
| 2026-04-21 09:32 | -42.83342 | 147.50612 | 23 ft | 3 kts | 45° |
| 2026-04-21 09:32 | -42.83321 | 147.50641 | 23 ft | 6 kts | 45° |
| 2026-04-21 09:32 | -42.83279 | 147.50682 | 23 ft | 9 kts | 18° |
| 2026-04-21 09:32 | -42.83219 | 147.50639 | 22 ft | 12 kts | 314° |
| 2026-04-21 09:33 | -42.83155 | 147.50552 | 23 ft | 14 kts | 315° |
| 2026-04-21 09:33 | -42.83077 | 147.50448 | 22 ft | 17 kts | 315° |
| 2026-04-21 09:33 | -42.82987 | 147.50326 | 22 ft | 20 kts | 314° |
| 2026-04-21 09:33 | -42.82935 | 147.50211 | 24 ft | 14 kts | 285° |
| 2026-04-21 09:34 | -42.82899 | 147.50086 | 22 ft | 10 kts | 308° |
| 2026-04-21 09:34 | -42.82840 | 147.50101 | 23 ft | 11 kts | 62° |
| 2026-04-21 09:34 | -42.82882 | 147.50186 | 22 ft | 14 kts | 150° |
| 2026-04-21 09:34 | -42.82929 | 147.50245 | 22 ft | 0 kts | 134° |
| 2026-04-21 09:35 | -42.82936 | 147.50256 | 25 ft | 9 kts | 134° |
| 2026-04-21 09:35 | -42.83173 | 147.50580 | 23 ft | 85 kts | 135° |
| 2026-04-21 09:35 | -42.83736 | 147.51346 | 26 ft | 140 kts | 135° |
| 2026-04-21 09:36 | -42.84464 | 147.52305 | 537 ft | 143 kts | 134° |
| 2026-04-21 09:36 | -42.85198 | 147.53179 | 1274 ft | 138 kts | 132° |
| 2026-04-21 09:36 | -42.85909 | 147.54080 | 1784 ft | 146 kts | 125° |
| 2026-04-21 09:36 | -42.86650 | 147.55169 | 2137 ft | 167 kts | 128° |
| 2026-04-21 09:37 | -42.87493 | 147.56415 | 2425 ft | 190 kts | 127° |
| 2026-04-21 09:37 | -42.88452 | 147.57814 | 2714 ft | 215 kts | 129° |
| 2026-04-21 09:37 | -42.89539 | 147.59375 | 3153 ft | 239 kts | 129° |
| 2026-04-21 09:37 | -42.90750 | 147.61097 | 3639 ft | 263 kts | 131° |
| 2026-04-21 09:38 | -42.91893 | 147.63099 | 4452 ft | 270 kts | 117° |
| 2026-04-21 09:38 | -42.92594 | 147.65464 | 5435 ft | 270 kts | 100° |
| 2026-04-21 09:38 | -42.92770 | 147.67977 | 6353 ft | 271 kts | 83° |
| 2026-04-21 09:38 | -42.92365 | 147.70474 | 7233 ft | 271 kts | 63° |
| 2026-04-21 09:39 | -42.91262 | 147.72539 | 8131 ft | 271 kts | 39° |
| 2026-04-21 09:39 | -42.89624 | 147.73767 | 9044 ft | 273 kts | 18° |
| 2026-04-21 09:39 | -42.87790 | 147.74450 | 9951 ft | 275 kts | 13° |
| 2026-04-21 09:39 | -42.85833 | 147.74800 | 10471 ft | 295 kts | 2° |
| 2026-04-21 09:40 | -42.83730 | 147.74644 | 10987 ft | 309 kts | 357° |
| 2026-04-21 09:40 | -42.81597 | 147.74401 | 11691 ft | 314 kts | 356° |
| 2026-04-21 09:40 | -42.79400 | 147.74130 | 12395 ft | 320 kts | 357° |
| 2026-04-21 09:40 | -42.77168 | 147.73847 | 13115 ft | 325 kts | 355° |
| 2026-04-21 09:41 | -42.74900 | 147.73553 | 13857 ft | 330 kts | 356° |
| 2026-04-21 09:41 | -42.72603 | 147.73251 | 14539 ft | 334 kts | 355° |
| 2026-04-21 09:41 | -42.70297 | 147.72731 | 15191 ft | 339 kts | 346° |
| 2026-04-21 09:41 | -42.68078 | 147.71585 | 15842 ft | 344 kts | 337° |
| 2026-04-21 09:42 | -42.65886 | 147.70263 | 16494 ft | 347 kts | 337° |
| 2026-04-21 09:42 | -42.63663 | 147.68936 | 17108 ft | 351 kts | 337° |
| 2026-04-21 09:42 | -42.61416 | 147.67588 | 17733 ft | 355 kts | 336° |
| 2026-04-21 09:42 | -42.59215 | 147.66129 | 18355 ft | 359 kts | 333° |
| 2026-04-21 09:43 | -42.57000 | 147.64530 | 18963 ft | 363 kts | 332° |
| 2026-04-21 09:43 | -42.54783 | 147.62859 | 19526 ft | 366 kts | 331° |
| 2026-04-21 09:43 | -42.52548 | 147.61154 | 20066 ft | 371 kts | 330° |
| 2026-04-21 09:43 | -42.50284 | 147.59442 | 20625 ft | 375 kts | 330° |
| 2026-04-21 09:44 | -42.47988 | 147.57729 | 21158 ft | 378 kts | 331° |
| 2026-04-21 09:44 | -42.45660 | 147.56022 | 21669 ft | 383 kts | 331° |
| 2026-04-21 09:44 | -42.43306 | 147.54307 | 22196 ft | 386 kts | 330° |
| 2026-04-21 09:44 | -42.40967 | 147.52605 | 22676 ft | 390 kts | 330° |
| 2026-04-21 09:45 | -42.38570 | 147.50860 | 23187 ft | 393 kts | 329° |
| 2026-04-21 09:45 | -42.36147 | 147.49098 | 23677 ft | 397 kts | 330° |
| 2026-04-21 09:45 | -42.33705 | 147.47321 | 24152 ft | 400 kts | 329° |
| 2026-04-21 09:45 | -42.31246 | 147.45532 | 24605 ft | 402 kts | 329° |
| 2026-04-21 09:46 | -42.28770 | 147.43736 | 25047 ft | 405 kts | 330° |
| 2026-04-21 09:46 | -42.26278 | 147.41930 | 25486 ft | 408 kts | 330° |
| 2026-04-21 09:46 | -42.23770 | 147.40111 | 25909 ft | 411 kts | 330° |
| 2026-04-21 09:46 | -42.21244 | 147.38288 | 26320 ft | 413 kts | 331° |
| 2026-04-21 09:47 | -42.18615 | 147.36821 | 26732 ft | 418 kts | 341° |
| 2026-04-21 09:47 | -42.15763 | 147.35917 | 27141 ft | 423 kts | 348° |
| 2026-04-21 09:47 | -42.12857 | 147.35224 | 27544 ft | 425 kts | 348° |
| 2026-04-21 09:47 | -42.09932 | 147.34525 | 27953 ft | 428 kts | 348° |
| 2026-04-21 09:48 | -42.06991 | 147.33823 | 28351 ft | 431 kts | 348° |
| 2026-04-21 09:48 | -42.04027 | 147.33114 | 28751 ft | 434 kts | 348° |
| 2026-04-21 09:48 | -42.01041 | 147.32399 | 29128 ft | 438 kts | 348° |
| 2026-04-21 09:48 | -41.98040 | 147.31679 | 29505 ft | 440 kts | 348° |
| 2026-04-21 09:49 | -41.95056 | 147.30961 | 29917 ft | 443 kts | 348° |
| 2026-04-21 09:49 | -41.92015 | 147.30230 | 30323 ft | 445 kts | 348° |
| 2026-04-21 09:49 | -41.88946 | 147.29495 | 30685 ft | 448 kts | 348° |
| 2026-04-21 09:49 | -41.85866 | 147.28762 | 31027 ft | 451 kts | 348° |
| 2026-04-21 09:50 | -41.82771 | 147.28030 | 31383 ft | 453 kts | 348° |
| 2026-04-21 09:50 | -41.79655 | 147.27293 | 31735 ft | 456 kts | 348° |
| 2026-04-21 09:50 | -41.76522 | 147.26551 | 32077 ft | 458 kts | 348° |
| 2026-04-21 09:50 | -41.73381 | 147.25804 | 32539 ft | 458 kts | 348° |
| 2026-04-21 09:51 | -41.70256 | 147.25065 | 33053 ft | 456 kts | 348° |
| 2026-04-21 09:51 | -41.67138 | 147.24331 | 33585 ft | 454 kts | 348° |
| 2026-04-21 09:51 | -41.64031 | 147.23597 | 34095 ft | 453 kts | 348° |
| 2026-04-21 09:51 | -41.60971 | 147.22875 | 34548 ft | 452 kts | 348° |
| 2026-04-21 09:52 | -41.57875 | 147.22144 | 34933 ft | 452 kts | 348° |
| 2026-04-21 09:52 | -41.54800 | 147.21316 | 35303 ft | 450 kts | 342° |
| 2026-04-21 09:52 | -41.51854 | 147.19975 | 35672 ft | 446 kts | 335° |
| 2026-04-21 09:52 | -41.48977 | 147.18407 | 36013 ft | 445 kts | 335° |
| 2026-04-21 09:53 | -41.46116 | 147.16844 | 36398 ft | 444 kts | 335° |
| 2026-04-21 09:53 | -41.43270 | 147.15291 | 36796 ft | 442 kts | 335° |
| 2026-04-21 09:53 | -41.40426 | 147.13742 | 37174 ft | 441 kts | 335° |
| 2026-04-21 09:53 | -41.37587 | 147.12202 | 37533 ft | 440 kts | 335° |
| 2026-04-21 09:54 | -41.34789 | 147.10688 | 37848 ft | 440 kts | 335° |
| 2026-04-21 09:54 | -41.31952 | 147.09154 | 38179 ft | 439 kts | 335° |
| 2026-04-21 09:54 | -41.29118 | 147.07623 | 38393 ft | 439 kts | 335° |
| 2026-04-21 09:54 | -41.26292 | 147.06096 | 38421 ft | 437 kts | 335° |
| 2026-04-21 09:55 | -41.20689 | 147.03073 | 38421 ft | 434 kts | 335° |
| 2026-04-21 09:55 | -41.15093 | 147.00063 | 38421 ft | 434 kts | 335° |
| 2026-04-21 09:56 | -41.09490 | 146.97052 | 38422 ft | 434 kts | 335° |
| 2026-04-21 09:56 | -41.03922 | 146.94066 | 38414 ft | 435 kts | 335° |
| 2026-04-21 09:57 | -40.98322 | 146.91068 | 38426 ft | 434 kts | 335° |
| 2026-04-21 09:57 | -40.92719 | 146.88070 | 38433 ft | 434 kts | 335° |
| 2026-04-21 09:58 | -40.87112 | 146.85096 | 38433 ft | 434 kts | 335° |
| 2026-04-21 09:58 | -40.81508 | 146.82133 | 38423 ft | 434 kts | 335° |
| 2026-04-21 09:59 | -40.75897 | 146.79162 | 38425 ft | 434 kts | 335° |
| 2026-04-21 09:59 | -40.70338 | 146.76207 | 38429 ft | 433 kts | 335° |
| 2026-04-21 10:00 | -40.64750 | 146.73241 | 38428 ft | 433 kts | 335° |
| 2026-04-21 10:00 | -40.59153 | 146.70278 | 38413 ft | 433 kts | 335° |
| 2026-04-21 10:01 | -40.53557 | 146.67326 | 38421 ft | 433 kts | 335° |
| 2026-04-21 10:01 | -40.48001 | 146.64400 | 38421 ft | 433 kts | 335° |
| 2026-04-21 10:02 | -40.39609 | 146.60004 | 38405 ft | 433 kts | 335° |
| 2026-04-21 10:03 | -40.34016 | 146.57073 | 38405 ft | 433 kts | 335° |
| 2026-04-21 10:03 | -40.28430 | 146.54149 | 38410 ft | 433 kts | 335° |
| 2026-04-21 10:04 | -40.22831 | 146.51225 | 38406 ft | 433 kts | 335° |
| 2026-04-21 10:04 | -40.17275 | 146.48327 | 38397 ft | 433 kts | 335° |
| 2026-04-21 10:05 | -40.11681 | 146.45415 | 38395 ft | 433 kts | 335° |
| 2026-04-21 10:05 | -40.06092 | 146.42510 | 38397 ft | 433 kts | 335° |
| 2026-04-21 10:06 | -40.00494 | 146.39611 | 38388 ft | 433 kts | 335° |
| 2026-04-21 10:06 | -39.94932 | 146.36737 | 38393 ft | 433 kts | 335° |
| 2026-04-21 10:07 | -39.89326 | 146.33854 | 38391 ft | 433 kts | 335° |
| 2026-04-21 10:07 | -39.83723 | 146.30976 | 38390 ft | 433 kts | 335° |
| 2026-04-21 10:08 | -39.78112 | 146.28096 | 38378 ft | 433 kts | 335° |
| 2026-04-21 10:08 | -39.72500 | 146.25228 | 38381 ft | 433 kts | 335° |
| 2026-04-21 10:09 | -39.66924 | 146.22390 | 38380 ft | 433 kts | 335° |
| 2026-04-21 10:09 | -39.61313 | 146.19528 | 38381 ft | 433 kts | 335° |
| 2026-04-21 10:10 | -39.55703 | 146.16668 | 38374 ft | 433 kts | 335° |
| 2026-04-21 10:10 | -39.50089 | 146.13820 | 38382 ft | 433 kts | 335° |
| 2026-04-21 10:11 | -39.44474 | 146.10980 | 38376 ft | 433 kts | 335° |
| 2026-04-21 10:11 | -39.41705 | 146.09576 | 37966 ft | 437 kts | 335° |
| 2026-04-21 10:11 | -39.38855 | 146.08127 | 37340 ft | 439 kts | 335° |
| 2026-04-21 10:11 | -39.36035 | 146.06703 | 37034 ft | 433 kts | 335° |
| 2026-04-21 10:12 | -39.33236 | 146.05293 | 36623 ft | 430 kts | 335° |
| 2026-04-21 10:12 | -39.30456 | 146.03888 | 36187 ft | 428 kts | 335° |
| 2026-04-21 10:12 | -39.27692 | 146.02486 | 35757 ft | 425 kts | 335° |
| 2026-04-21 10:12 | -39.24952 | 146.01102 | 35328 ft | 423 kts | 335° |
| 2026-04-21 10:13 | -39.22211 | 145.99718 | 34875 ft | 421 kts | 336° |
| 2026-04-21 10:13 | -39.19487 | 145.98344 | 34419 ft | 420 kts | 336° |
| 2026-04-21 10:13 | -39.16771 | 145.96982 | 33918 ft | 418 kts | 335° |
| 2026-04-21 10:13 | -39.14067 | 145.95624 | 33464 ft | 416 kts | 336° |
| 2026-04-21 10:14 | -39.11415 | 145.94296 | 33013 ft | 413 kts | 335° |
| 2026-04-21 10:14 | -39.08739 | 145.92964 | 32557 ft | 411 kts | 336° |
| 2026-04-21 10:14 | -39.06082 | 145.91639 | 32116 ft | 409 kts | 336° |
| 2026-04-21 10:14 | -39.03428 | 145.90312 | 31677 ft | 407 kts | 336° |
| 2026-04-21 10:15 | -39.00793 | 145.88989 | 31232 ft | 406 kts | 335° |
| 2026-04-21 10:15 | -38.98167 | 145.87675 | 30804 ft | 404 kts | 335° |
| 2026-04-21 10:15 | -38.95553 | 145.86369 | 30376 ft | 403 kts | 336° |
| 2026-04-21 10:15 | -38.92950 | 145.85069 | 29931 ft | 400 kts | 336° |
| 2026-04-21 10:16 | -38.90363 | 145.83776 | 29514 ft | 397 kts | 336° |
| 2026-04-21 10:16 | -38.87795 | 145.82494 | 29119 ft | 394 kts | 336° |
| 2026-04-21 10:16 | -38.85282 | 145.81243 | 28732 ft | 391 kts | 336° |
| 2026-04-21 10:16 | -38.82746 | 145.79982 | 28326 ft | 389 kts | 336° |
| 2026-04-21 10:17 | -38.80239 | 145.78738 | 27934 ft | 386 kts | 336° |
| 2026-04-21 10:17 | -38.77739 | 145.77502 | 27528 ft | 383 kts | 336° |
| 2026-04-21 10:17 | -38.75266 | 145.76277 | 27121 ft | 381 kts | 336° |
| 2026-04-21 10:17 | -38.72801 | 145.75057 | 26709 ft | 379 kts | 336° |
| 2026-04-21 10:18 | -38.70351 | 145.73842 | 26297 ft | 377 kts | 336° |
| 2026-04-21 10:18 | -38.67911 | 145.72630 | 25867 ft | 375 kts | 336° |
| 2026-04-21 10:18 | -38.65480 | 145.71424 | 25444 ft | 374 kts | 336° |
| 2026-04-21 10:18 | -38.63089 | 145.70236 | 25007 ft | 373 kts | 336° |
| 2026-04-21 10:19 | -38.60667 | 145.69037 | 24565 ft | 373 kts | 337° |
| 2026-04-21 10:19 | -38.58246 | 145.67843 | 24108 ft | 373 kts | 337° |
| 2026-04-21 10:19 | -38.55824 | 145.66649 | 23620 ft | 373 kts | 337° |
| 2026-04-21 10:19 | -38.53407 | 145.65460 | 23150 ft | 371 kts | 337° |
| 2026-04-21 10:20 | -38.51003 | 145.64278 | 22698 ft | 369 kts | 337° |
| 2026-04-21 10:20 | -38.48613 | 145.63102 | 22247 ft | 368 kts | 337° |
| 2026-04-21 10:20 | -38.46280 | 145.61796 | 21794 ft | 365 kts | 329° |
| 2026-04-21 10:20 | -38.44051 | 145.60259 | 21342 ft | 363 kts | 330° |
| 2026-04-21 10:21 | -38.41861 | 145.58750 | 20892 ft | 362 kts | 330° |
| 2026-04-21 10:21 | -38.39654 | 145.57226 | 20431 ft | 361 kts | 329° |
| 2026-04-21 10:21 | -38.37450 | 145.55698 | 19984 ft | 360 kts | 329° |
| 2026-04-21 10:21 | -38.35251 | 145.54172 | 19526 ft | 359 kts | 329° |
| 2026-04-21 10:22 | -38.33055 | 145.52651 | 19073 ft | 359 kts | 329° |
| 2026-04-21 10:22 | -38.30858 | 145.51136 | 18617 ft | 359 kts | 330° |
| 2026-04-21 10:22 | -38.28664 | 145.49625 | 18112 ft | 358 kts | 330° |
| 2026-04-21 10:22 | -38.26479 | 145.48126 | 17660 ft | 356 kts | 330° |
| 2026-04-21 10:23 | -38.24308 | 145.46636 | 17203 ft | 354 kts | 330° |
| 2026-04-21 10:23 | -38.22149 | 145.45155 | 16755 ft | 352 kts | 330° |
| 2026-04-21 10:23 | -38.20030 | 145.43701 | 16314 ft | 350 kts | 330° |
| 2026-04-21 10:23 | -38.17890 | 145.42236 | 15873 ft | 348 kts | 330° |
| 2026-04-21 10:24 | -38.15795 | 145.40807 | 15434 ft | 335 kts | 330° |
| 2026-04-21 10:24 | -38.13773 | 145.39431 | 15003 ft | 324 kts | 330° |
| 2026-04-21 10:24 | -38.11819 | 145.38104 | 14618 ft | 314 kts | 330° |
| 2026-04-21 10:24 | -38.09891 | 145.36788 | 14212 ft | 315 kts | 330° |
| 2026-04-21 10:25 | -38.07951 | 145.35462 | 13770 ft | 317 kts | 330° |
| 2026-04-21 10:25 | -38.06006 | 145.34133 | 13352 ft | 318 kts | 330° |
| 2026-04-21 10:25 | -38.04167 | 145.32603 | 12942 ft | 315 kts | 316° |
| 2026-04-21 10:25 | -38.02785 | 145.30522 | 12544 ft | 312 kts | 298° |
| 2026-04-21 10:26 | -38.01948 | 145.28012 | 12134 ft | 308 kts | 281° |
| 2026-04-21 10:26 | -38.01721 | 145.25339 | 11719 ft | 304 kts | 267° |
| 2026-04-21 10:26 | -38.01752 | 145.22712 | 11327 ft | 292 kts | 268° |
| 2026-04-21 10:26 | -38.01777 | 145.20184 | 10942 ft | 281 kts | 268° |
| 2026-04-21 10:27 | -38.01799 | 145.17744 | 10574 ft | 272 kts | 268° |
| 2026-04-21 10:27 | -38.01819 | 145.15381 | 10109 ft | 267 kts | 268° |
| 2026-04-21 10:27 | -38.01839 | 145.13003 | 9582 ft | 272 kts | 269° |
| 2026-04-21 10:27 | -38.01861 | 145.10596 | 9184 ft | 274 kts | 268° |
| 2026-04-21 10:28 | -38.01874 | 145.08995 | 8943 ft | 274 kts | 269° |
| 2026-04-21 10:28 | -38.01899 | 145.05825 | 8443 ft | 266 kts | 269° |
| 2026-04-21 10:28 | -38.01918 | 145.03528 | 8098 ft | 255 kts | 270° |
| 2026-04-21 10:28 | -38.01934 | 145.01298 | 7757 ft | 252 kts | 270° |
| 2026-04-21 10:29 | -38.01951 | 144.99082 | 7423 ft | 250 kts | 270° |
| 2026-04-21 10:29 | -38.01966 | 144.96885 | 7165 ft | 248 kts | 270° |
| 2026-04-21 10:29 | -38.01972 | 144.94693 | 7075 ft | 248 kts | 274° |
| 2026-04-21 10:29 | -38.01563 | 144.92591 | 6971 ft | 247 kts | 297° |
| 2026-04-21 10:30 | -38.00538 | 144.90902 | 6809 ft | 248 kts | 319° |
| 2026-04-21 10:30 | -37.98985 | 144.89842 | 6358 ft | 252 kts | 344° |
| 2026-04-21 10:30 | -37.97299 | 144.89470 | 5859 ft | 249 kts | 351° |
| 2026-04-21 10:30 | -37.96147 | 144.89253 | 5513 ft | 248 kts | 351° |
| 2026-04-21 10:31 | -37.93901 | 144.88836 | 4823 ft | 245 kts | 351° |
| 2026-04-21 10:31 | -37.92786 | 144.88629 | 4463 ft | 244 kts | 351° |
| 2026-04-21 10:31 | -37.90561 | 144.88215 | 3863 ft | 237 kts | 351° |
| 2026-04-21 10:31 | -37.89505 | 144.88017 | 3727 ft | 227 kts | 351° |
| 2026-04-21 10:32 | -37.88003 | 144.87737 | 3599 ft | 209 kts | 351° |
| 2026-04-21 10:32 | -37.86215 | 144.87401 | 3502 ft | 182 kts | 352° |
| 2026-04-21 10:32 | -37.85403 | 144.87248 | 3426 ft | 168 kts | 352° |
| 2026-04-21 10:32 | -37.84319 | 144.87043 | 3344 ft | 148 kts | 352° |
| 2026-04-21 10:33 | -37.83375 | 144.86865 | 3287 ft | 132 kts | 352° |
| 2026-04-21 10:33 | -37.82482 | 144.86697 | 3133 ft | 127 kts | 352° |
| 2026-04-21 10:33 | -37.81343 | 144.86484 | 2909 ft | 123 kts | 352° |
| 2026-04-21 10:33 | -37.80789 | 144.86379 | 2790 ft | 122 kts | 352° |
| 2026-04-21 10:34 | -37.79957 | 144.86223 | 2628 ft | 120 kts | 352° |
| 2026-04-21 10:34 | -37.79132 | 144.86069 | 2470 ft | 120 kts | 351° |
| 2026-04-21 10:34 | -37.78308 | 144.85915 | 2311 ft | 120 kts | 353° |
| 2026-04-21 10:34 | -37.77481 | 144.85761 | 2147 ft | 119 kts | 351° |
| 2026-04-21 10:35 | -37.76660 | 144.85608 | 1990 ft | 119 kts | 352° |
| 2026-04-21 10:35 | -37.75842 | 144.85454 | 1824 ft | 120 kts | 352° |
| 2026-04-21 10:35 | -37.74760 | 144.85264 | 1630 ft | 119 kts | 354° |
| 2026-04-21 10:35 | -37.74217 | 144.85192 | 1493 ft | 118 kts | 354° |
| 2026-04-21 10:36 | -37.73398 | 144.85050 | 1311 ft | 119 kts | 353° |
| 2026-04-21 10:36 | -37.72582 | 144.84870 | 1108 ft | 123 kts | 353° |
| 2026-04-21 10:36 | -37.71728 | 144.84700 | 840 ft | 127 kts | 355° |
| 2026-04-21 10:36 | -37.70864 | 144.84539 | 766 ft | 122 kts | 355° |
| 2026-04-21 10:37 | -37.70019 | 144.84394 | 716 ft | 122 kts | 352° |
| 2026-04-21 10:37 | -37.69178 | 144.84192 | 515 ft | 123 kts | 352° |
| 2026-04-21 10:37 | -37.68339 | 144.84056 | 374 ft | 121 kts | 354° |
| 2026-04-21 10:37 | -37.67613 | 144.83920 | 363 ft | 71 kts | 351° |
| 2026-04-21 10:38 | -37.67182 | 144.83837 | 381 ft | 54 kts | 353° |
| 2026-04-21 10:38 | -37.66926 | 144.83873 | 389 ft | 22 kts | 20° |
| 2026-04-21 10:38 | -37.66820 | 144.83923 | 392 ft | 11 kts | 21° |
| 2026-04-21 10:38 | -37.66753 | 144.83967 | 394 ft | 11 kts | 39° |
| 2026-04-21 10:39 | -37.66714 | 144.84058 | 394 ft | 13 kts | 83° |
| 2026-04-21 10:39 | -37.66762 | 144.84169 | 393 ft | 17 kts | 142° |
| 2026-04-21 10:39 | -37.66893 | 144.84210 | 389 ft | 22 kts | 170° |
| 2026-04-21 10:39 | -37.67057 | 144.84242 | 385 ft | 24 kts | 171° |
| 2026-04-21 10:40 | -37.67231 | 144.84274 | 381 ft | 17 kts | 171° |
| 2026-04-21 10:40 | -37.67349 | 144.84297 | 379 ft | 19 kts | 171° |
| 2026-04-21 10:40 | -37.67459 | 144.84328 | 376 ft | 16 kts | 147° |
| 2026-04-21 10:40 | -37.67468 | 144.84461 | 378 ft | 15 kts | 79° |
| 2026-04-21 10:41 | -37.67452 | 144.84590 | 380 ft | 8 kts | 81° |
| 2026-04-21 10:41 | -37.67488 | 144.84632 | 380 ft | 10 kts | 166° |
| 2026-04-21 10:41 | -37.67528 | 144.84639 | 379 ft | 0 kts | 172° |